LAH weather

Lake Holmes Airstrip
Danau Bira, Papua, Indonesia

Public forecast

Using degrees Celsius for public forecast. Weather courtesy of forecast.io.

METAR (pilot weather report)

Report is more than 6 hours old.

Closest report is Frans Kaisiepo Airport, 136.6 nm (252.9 km) NW. Retrieved 2019/07/17 05:00 UTC (4 days ago):

WABB 170500Z 10014KT 9999 SCT018 SCT100 31/25 Q1007 NOSIG

TAF (pilot weather forecast)

Closest forecast is Frans Kaisiepo Airport, 136.6 nm (252.9 km) NW. Retrieved 2019/07/20 18:08 UTC (2 hours ago):

TAF WABB 201700Z 2018/2200 32004KT 9999 SCT018 TEMPO 2018/2022 8000 -RA FEW017CB BECMG 2022/2100 25005KT